sensor_id;sensor_type;location;lat;lon;timestamp;pressure;altitude;pressure_sealevel;temperature;humidity
17309;BME280;8772;42.804;23.426;2023-04-07T00:02:12;74753.44;;;-140.58;100.00
17309;BME280;8772;42.804;23.426;2023-04-07T00:04:39;74761.66;;;-140.58;100.00
17309;BME280;8772;42.804;23.426;2023-04-07T00:07:06;74773.97;;;-140.58;100.00
17309;BME280;8772;42.804;23.426;2023-04-07T00:09:34;74761.66;;;-140.58;100.00
17309;BME280;8772;42.804;23.426;2023-04-07T00:12:01;74759.59;;;-140.58;100.00
17309;BME280;8772;42.804;23.426;2023-04-07T00:14:28;74761.66;;;-140.58;100.00
17309;BME280;8772;42.804;23.426;2023-04-07T00:16:55;74790.38;;;-140.58;100.00
17309;BME280;8772;42.804;23.426;2023-04-07T00:19:22;74776.03;;;-140.58;100.00
17309;BME280;8772;42.804;23.426;2023-04-07T00:21:49;74786.28;;;-140.58;100.00
17309;BME280;8772;42.804;23.426;2023-04-07T00:24:15;74782.19;;;-140.58;100.00
17309;BME280;8772;42.804;23.426;2023-04-07T00:26:44;74778.06;;;-140.58;100.00
17309;BME280;8772;42.804;23.426;2023-04-07T00:29:11;74792.44;;;-140.58;100.00
17309;BME280;8772;42.804;23.426;2023-04-07T00:31:38;74786.28;;;-140.58;100.00
17309;BME280;8772;42.804;23.426;2023-04-07T00:34:04;74773.97;;;-140.58;100.00
17309;BME280;8772;42.804;23.426;2023-04-07T00:36:31;74788.34;;;-140.58;100.00
17309;BME280;8772;42.804;23.426;2023-04-07T00:38:58;74796.53;;;-140.58;100.00
17309;BME280;8772;42.804;23.426;2023-04-07T00:41:25;74776.03;;;-140.58;100.00
17309;BME280;8772;42.804;23.426;2023-04-07T00:43:54;74790.38;;;-140.58;100.00
17309;BME280;8772;42.804;23.426;2023-04-07T00:46:21;74788.34;;;-140.58;100.00
17309;BME280;8772;42.804;23.426;2023-04-07T00:48:49;74786.28;;;-140.58;100.00
17309;BME280;8772;42.804;23.426;2023-04-07T00:51:17;74798.59;;;-140.58;100.00
17309;BME280;8772;42.804;23.426;2023-04-07T00:53:45;74796.53;;;-140.58;100.00
17309;BME280;8772;42.804;23.426;2023-04-07T00:56:12;74802.69;;;-140.58;100.00
17309;BME280;8772;42.804;23.426;2023-04-07T00:58:40;74810.91;;;-140.58;100.00
17309;BME280;8772;42.804;23.426;2023-04-07T01:01:11;74823.22;;;-140.58;100.00
17309;BME280;8772;42.804;23.426;2023-04-07T01:07:05;74823.22;;;-140.58;100.00
17309;BME280;8772;42.804;23.426;2023-04-07T01:09:37;74831.44;;;-140.58;100.00
17309;BME280;8772;42.804;23.426;2023-04-07T01:12:11;74823.22;;;-140.58;100.00
17309;BME280;8772;42.804;23.426;2023-04-07T01:14:46;74802.69;;;-140.58;100.00
17309;BME280;8772;42.804;23.426;2023-04-07T01:17:16;74825.28;;;-140.58;100.00
17309;BME280;8772;42.804;23.426;2023-04-07T01:19:49;74821.16;;;-140.58;100.00
17309;BME280;8772;42.804;23.426;2023-04-07T01:22:22;74810.91;;;-140.58;100.00
17309;BME280;8772;42.804;23.426;2023-04-07T01:25:05;74804.75;;;-140.58;100.00
17309;BME280;8772;42.804;23.426;2023-04-07T01:27:46;74788.34;;;-140.58;100.00
17309;BME280;8772;42.804;23.426;2023-04-07T01:30:16;74778.06;;;-140.58;100.00
17309;BME280;8772;42.804;23.426;2023-04-07T01:32:46;74798.59;;;-140.58;100.00
17309;BME280;8772;42.804;23.426;2023-04-07T01:35:17;74790.38;;;-140.58;100.00
17309;BME280;8772;42.804;23.426;2023-04-07T01:37:46;74806.81;;;-140.58;100.00
17309;BME280;8772;42.804;23.426;2023-04-07T01:40:15;74810.91;;;-140.58;100.00
17309;BME280;8772;42.804;23.426;2023-04-07T01:42:44;74802.69;;;-140.58;100.00
17309;BME280;8772;42.804;23.426;2023-04-07T01:45:11;74815.00;;;-140.58;100.00
17309;BME280;8772;42.804;23.426;2023-04-07T01:47:40;74815.00;;;-140.58;100.00
17309;BME280;8772;42.804;23.426;2023-04-07T01:50:09;74802.69;;;-140.58;100.00
17309;BME280;8772;42.804;23.426;2023-04-07T01:52:37;74802.69;;;-140.58;100.00
17309;BME280;8772;42.804;23.426;2023-04-07T01:55:06;74798.59;;;-140.58;100.00
17309;BME280;8772;42.804;23.426;2023-04-07T01:57:34;74802.69;;;-140.58;100.00
17309;BME280;8772;42.804;23.426;2023-04-07T02:00:01;74790.38;;;-140.58;100.00
17309;BME280;8772;42.804;23.426;2023-04-07T02:02:28;74802.69;;;-140.58;100.00
17309;BME280;8772;42.804;23.426;2023-04-07T02:05:00;74778.06;;;-140.58;100.00
17309;BME280;8772;42.804;23.426;2023-04-07T02:07:37;74769.88;;;-140.58;100.00
17309;BME280;8772;42.804;23.426;2023-04-07T02:10:09;74767.81;;;-140.58;100.00
17309;BME280;8772;42.804;23.426;2023-04-07T02:12:38;74761.66;;;-140.58;100.00
17309;BME280;8772;42.804;23.426;2023-04-07T02:15:08;74745.25;;;-140.58;100.00
17309;BME280;8772;42.804;23.426;2023-04-07T02:17:39;74765.75;;;-140.58;100.00
17309;BME280;8772;42.804;23.426;2023-04-07T02:20:10;74784.22;;;-140.58;100.00
17309;BME280;8772;42.804;23.426;2023-04-07T02:22:38;74761.66;;;-140.58;100.00
17309;BME280;8772;42.804;23.426;2023-04-07T02:25:20;74749.34;;;-140.58;100.00
17309;BME280;8772;42.804;23.426;2023-04-07T02:27:47;74749.34;;;-140.58;100.00
17309;BME280;8772;42.804;23.426;2023-04-07T02:30:14;74745.25;;;-140.58;100.00
17309;BME280;8772;42.804;23.426;2023-04-07T02:32:41;74724.72;;;-140.58;100.00
17309;BME280;8772;42.804;23.426;2023-04-07T02:35:10;74724.72;;;-140.58;100.00
17309;BME280;8772;42.804;23.426;2023-04-07T02:37:37;74716.50;;;-140.58;100.00
17309;BME280;8772;42.804;23.426;2023-04-07T02:40:04;74716.50;;;-140.58;100.00
17309;BME280;8772;42.804;23.426;2023-04-07T02:42:31;74704.19;;;-140.58;100.00
17309;BME280;8772;42.804;23.426;2023-04-07T02:44:58;74693.94;;;-140.58;100.00
17309;BME280;8772;42.804;23.426;2023-04-07T02:47:25;74683.69;;;-140.58;100.00
17309;BME280;8772;42.804;23.426;2023-04-07T02:49:52;74677.53;;;-140.58;98.66
17309;BME280;8772;42.804;23.426;2023-04-07T02:52:20;74679.59;;;-140.58;98.83
17309;BME280;8772;42.804;23.426;2023-04-07T02:54:47;74691.91;;;-140.58;100.00
17309;BME280;8772;42.804;23.426;2023-04-07T02:57:14;74704.19;;;-140.58;100.00
17309;BME280;8772;42.804;23.426;2023-04-07T02:59:41;74696.00;;;-140.58;100.00
17309;BME280;8772;42.804;23.426;2023-04-07T03:02:07;74704.19;;;-140.58;100.00
17309;BME280;8772;42.804;23.426;2023-04-07T03:04:34;74696.00;;;-140.58;100.00
17309;BME280;8772;42.804;23.426;2023-04-07T03:07:01;74712.41;;;-140.58;100.00
17309;BME280;8772;42.804;23.426;2023-04-07T03:09:30;74718.56;;;-140.58;100.00
17309;BME280;8772;42.804;23.426;2023-04-07T03:11:56;74732.94;;;-140.58;100.00
17309;BME280;8772;42.804;23.426;2023-04-07T03:14:23;74743.19;;;-140.58;100.00
17309;BME280;8772;42.804;23.426;2023-04-07T03:16:50;74751.41;;;-140.58;100.00
17309;BME280;8772;42.804;23.426;2023-04-07T03:19:17;74755.50;;;-140.58;100.00
17309;BME280;8772;42.804;23.426;2023-04-07T03:21:44;74745.25;;;-140.58;100.00
17309;BME280;8772;42.804;23.426;2023-04-07T03:24:11;74737.03;;;-140.58;100.00
17309;BME280;8772;42.804;23.426;2023-04-07T03:26:39;74776.03;;;-140.58;100.00
17309;BME280;8772;42.804;23.426;2023-04-07T03:29:06;74741.13;;;-140.58;100.00
17309;BME280;8772;42.804;23.426;2023-04-07T03:31:33;74749.34;;;-140.58;100.00
17309;BME280;8772;42.804;23.426;2023-04-07T03:34:02;74753.44;;;-140.58;100.00
17309;BME280;8772;42.804;23.426;2023-04-07T03:36:29;74755.50;;;-140.58;100.00
17309;BME280;8772;42.804;23.426;2023-04-07T03:38:56;74765.75;;;-140.58;100.00
17309;BME280;8772;42.804;23.426;2023-04-07T03:41:23;74759.59;;;-140.58;100.00
17309;BME280;8772;42.804;23.426;2023-04-07T03:43:51;74761.66;;;-140.58;100.00
17309;BME280;8772;42.804;23.426;2023-04-07T03:46:18;74753.44;;;-140.58;100.00
17309;BME280;8772;42.804;23.426;2023-04-07T03:48:45;74765.75;;;-140.58;100.00
17309;BME280;8772;42.804;23.426;2023-04-07T03:51:12;74755.50;;;-140.58;100.00
17309;BME280;8772;42.804;23.426;2023-04-07T03:53:39;74749.34;;;-140.58;100.00
17309;BME280;8772;42.804;23.426;2023-04-07T03:56:06;74737.03;;;-140.58;100.00
17309;BME280;8772;42.804;23.426;2023-04-07T03:58:33;74739.09;;;-140.58;100.00
17309;BME280;8772;42.804;23.426;2023-04-07T04:01:02;74722.66;;;-140.58;100.00
17309;BME280;8772;42.804;23.426;2023-04-07T04:03:29;74716.50;;;-140.58;100.00
17309;BME280;8772;42.804;23.426;2023-04-07T04:05:56;74710.38;;;-140.58;100.00
17309;BME280;8772;42.804;23.426;2023-04-07T04:08:23;74714.47;;;-140.58;100.00
17309;BME280;8772;42.804;23.426;2023-04-07T04:10:50;74704.19;;;-140.58;100.00
17309;BME280;8772;42.804;23.426;2023-04-07T04:13:17;74691.91;;;-140.58;100.00
17309;BME280;8772;42.804;23.426;2023-04-07T04:15:43;74675.47;;;-140.58;100.00
17309;BME280;8772;42.804;23.426;2023-04-07T04:18:12;74679.59;;;-140.58;99.59
17309;BME280;8772;42.804;23.426;2023-04-07T04:20:39;74661.13;;;-140.58;96.33
17309;BME280;8772;42.804;23.426;2023-04-07T04:23:06;74646.75;;;-140.58;90.55
17309;BME280;8772;42.804;23.426;2023-04-07T04:25:32;74630.34;;;-140.58;92.17
17309;BME280;8772;42.804;23.426;2023-04-07T04:27:59;74626.22;;;-140.58;94.28
17309;BME280;8772;42.804;23.426;2023-04-07T04:30:26;74615.97;;;-140.58;95.56
17309;BME280;8772;42.804;23.426;2023-04-07T04:32:53;74605.72;;;-140.58;95.98
17309;BME280;8772;42.804;23.426;2023-04-07T04:35:21;74605.72;;;-140.58;97.23
17309;BME280;8772;42.804;23.426;2023-04-07T04:37:48;74599.56;;;-140.58;97.18
17309;BME280;8772;42.804;23.426;2023-04-07T04:40:16;74593.41;;;-140.58;96.70
17309;BME280;8772;42.804;23.426;2023-04-07T04:42:42;74589.28;;;-140.58;95.90
17309;BME280;8772;42.804;23.426;2023-04-07T04:45:10;74581.09;;;-140.58;95.44
17309;BME280;8772;42.804;23.426;2023-04-07T04:47:37;74568.78;;;-140.58;95.58
17309;BME280;8772;42.804;23.426;2023-04-07T04:50:05;74568.78;;;-140.58;93.94
17309;BME280;8772;42.804;23.426;2023-04-07T04:52:33;74558.53;;;-140.58;93.50
17309;BME280;8772;42.804;23.426;2023-04-07T04:55:02;74556.47;;;-140.58;93.93
17309;BME280;8772;42.804;23.426;2023-04-07T04:57:30;74548.25;;;-140.58;95.17
17309;BME280;8772;42.804;23.426;2023-04-07T04:59:59;74542.09;;;-140.58;96.33
17309;BME280;8772;42.804;23.426;2023-04-07T05:02:26;74535.94;;;-140.58;96.30
17309;BME280;8772;42.804;23.426;2023-04-07T05:04:53;74531.84;;;-140.58;95.79
17309;BME280;8772;42.804;23.426;2023-04-07T05:07:19;74525.69;;;-140.58;94.84
17309;BME280;8772;42.804;23.426;2023-04-07T05:09:48;74523.63;;;-140.58;92.85
17309;BME280;8772;42.804;23.426;2023-04-07T05:12:15;74515.44;;;-140.58;92.17
17309;BME280;8772;42.804;23.426;2023-04-07T05:14:42;74501.06;;;-140.58;92.11
17309;BME280;8772;42.804;23.426;2023-04-07T05:17:08;74499.00;;;-140.58;90.33
17309;BME280;8772;42.804;23.426;2023-04-07T05:19:35;74492.84;;;-140.58;88.80
17309;BME280;8772;42.804;23.426;2023-04-07T05:22:02;74482.59;;;-140.58;89.95
17309;BME280;8772;42.804;23.426;2023-04-07T05:24:29;74474.38;;;-140.58;91.34
17309;BME280;8772;42.804;23.426;2023-04-07T05:26:57;74464.13;;;-140.58;93.18
17309;BME280;8772;42.804;23.426;2023-04-07T05:29:24;74462.06;;;-140.58;94.08
17309;BME280;8772;42.804;23.426;2023-04-07T05:31:51;74439.50;;;-140.58;95.01
17309;BME280;8772;42.804;23.426;2023-04-07T05:34:18;74433.34;;;-140.58;95.83
17309;BME280;8772;42.804;23.426;2023-04-07T05:36:44;74416.94;;;-140.58;96.30
17309;BME280;8772;42.804;23.426;2023-04-07T05:39:11;74414.88;;;-140.58;96.26
17309;BME280;8772;42.804;23.426;2023-04-07T05:41:38;74404.63;;;-140.58;96.56
17309;BME280;8772;42.804;23.426;2023-04-07T05:44:07;74388.22;;;-140.58;95.89
17309;BME280;8772;42.804;23.426;2023-04-07T05:46:34;74377.94;;;-140.58;95.13
17309;BME280;8772;42.804;23.426;2023-04-07T05:49:00;74367.69;;;-140.58;94.63
17309;BME280;8772;42.804;23.426;2023-04-07T05:51:27;74363.59;;;-140.58;93.84
17309;BME280;8772;42.804;23.426;2023-04-07T05:53:55;74349.22;;;-140.58;93.31
17309;BME280;8772;42.804;23.426;2023-04-07T05:56:22;74338.97;;;-140.58;89.20
17309;BME280;8772;42.804;23.426;2023-04-07T05:58:49;74322.56;;;-140.58;89.53
17309;BME280;8772;42.804;23.426;2023-04-07T06:01:19;74318.44;;;-140.58;89.08
17309;BME280;8772;42.804;23.426;2023-04-07T06:03:46;74322.56;;;-140.58;90.03
17309;BME280;8772;42.804;23.426;2023-04-07T06:06:14;74300.00;;;-140.58;88.98
17309;BME280;8772;42.804;23.426;2023-04-07T06:08:40;74285.63;;;-140.58;88.72
17309;BME280;8772;42.804;23.426;2023-04-07T06:11:07;74275.38;;;-140.58;87.36
17309;BME280;8772;42.804;23.426;2023-04-07T06:13:34;74265.09;;;-140.58;86.19
17309;BME280;8772;42.804;23.426;2023-04-07T06:16:01;74252.81;;;-140.58;85.47
17309;BME280;8772;42.804;23.426;2023-04-07T06:18:29;74240.50;;;-140.58;84.98
17309;BME280;8772;42.804;23.426;2023-04-07T06:20:56;74234.34;;;-140.58;81.90
17309;BME280;8772;42.804;23.426;2023-04-07T06:23:23;74222.03;;;-140.58;82.16
17309;BME280;8772;42.804;23.426;2023-04-07T06:25:50;74217.91;;;-140.58;82.08
17309;BME280;8772;42.804;23.426;2023-04-07T06:28:17;74215.88;;;-140.58;82.54
17309;BME280;8772;42.804;23.426;2023-04-07T06:30:44;74209.72;;;-140.58;83.21
17309;BME280;8772;42.804;23.426;2023-04-07T06:33:12;74191.25;;;-140.58;84.47
17309;BME280;8772;42.804;23.426;2023-04-07T06:35:40;74170.72;;;-140.58;84.46
17309;BME280;8772;42.804;23.426;2023-04-07T06:38:07;74162.53;;;-140.58;81.96
17309;BME280;8772;42.804;23.426;2023-04-07T06:40:35;74133.81;;;-140.58;79.69
17309;BME280;8772;42.804;23.426;2023-04-07T06:43:02;74129.69;;;-140.58;75.77
17309;BME280;8772;42.804;23.426;2023-04-07T06:45:30;74115.34;;;-140.58;72.88
17309;BME280;8772;42.804;23.426;2023-04-07T06:47:57;74107.13;;;-140.58;73.80
17309;BME280;8772;42.804;23.426;2023-04-07T06:50:24;74090.72;;;-140.58;71.51
17309;BME280;8772;42.804;23.426;2023-04-07T06:52:52;74074.31;;;-140.58;72.01
17309;BME280;8772;42.804;23.426;2023-04-07T06:55:19;74059.94;;;-140.58;70.19
17309;BME280;8772;42.804;23.426;2023-04-07T06:57:46;74047.63;;;-140.58;65.93
17309;BME280;8772;42.804;23.426;2023-04-07T07:00:14;74041.47;;;-140.58;65.61
17309;BME280;8772;42.804;23.426;2023-04-07T07:02:40;74031.22;;;-140.58;63.15
17309;BME280;8772;42.804;23.426;2023-04-07T07:05:07;74023.00;;;-140.58;55.86
17309;BME280;8772;42.804;23.426;2023-04-07T07:07:35;74018.91;;;-140.58;54.51
17309;BME280;8772;42.804;23.426;2023-04-07T07:10:05;74014.81;;;-140.58;55.11
17309;BME280;8772;42.804;23.426;2023-04-07T07:12:32;73994.28;;;-140.58;52.88
17309;BME280;8772;42.804;23.426;2023-04-07T07:14:59;73975.81;;;-140.58;53.75
17309;BME280;8772;42.804;23.426;2023-04-07T07:17:26;73967.63;;;-140.58;50.26
17309;BME280;8772;42.804;23.426;2023-04-07T07:19:52;73965.56;;;-140.58;49.70
17309;BME280;8772;42.804;23.426;2023-04-07T07:22:19;73973.78;;;-140.58;47.68
17309;BME280;8772;42.804;23.426;2023-04-07T07:24:46;73988.13;;;-140.58;48.25
17309;BME280;8772;42.804;23.426;2023-04-07T07:27:14;74002.50;;;-140.58;49.28
17309;BME280;8772;42.804;23.426;2023-04-07T07:29:41;73979.94;;;-140.58;52.73
17309;BME280;8772;42.804;23.426;2023-04-07T07:32:08;73955.31;;;-140.58;49.72
17309;BME280;8772;42.804;23.426;2023-04-07T07:34:35;73936.84;;;-140.58;50.07
17309;BME280;8772;42.804;23.426;2023-04-07T07:37:02;73949.16;;;-140.58;48.62
17309;BME280;8772;42.804;23.426;2023-04-07T07:39:29;73928.66;;;-140.58;48.91
17309;BME280;8772;42.804;23.426;2023-04-07T07:41:56;73891.72;;;-140.58;49.24
17309;BME280;8772;42.804;23.426;2023-04-07T07:44:24;73867.09;;;-140.58;45.99
17309;BME280;8772;42.804;23.426;2023-04-07T07:46:51;73856.84;;;-140.58;46.39
17309;BME280;8772;42.804;23.426;2023-04-07T07:49:18;73846.59;;;-140.58;48.49
17309;BME280;8772;42.804;23.426;2023-04-07T07:51:44;73826.06;;;-140.58;47.50
17309;BME280;8772;42.804;23.426;2023-04-07T07:54:11;73811.72;;;-140.58;46.40
17309;BME280;8772;42.804;23.426;2023-04-07T07:56:38;73797.34;;;-140.58;46.24
17309;BME280;8772;42.804;23.426;2023-04-07T07:59:05;73789.16;;;-140.58;44.94
17309;BME280;8772;42.804;23.426;2023-04-07T08:01:33;73789.16;;;-140.58;45.10
17309;BME280;8772;42.804;23.426;2023-04-07T08:04:00;73793.25;;;-140.58;43.15
17309;BME280;8772;42.804;23.426;2023-04-07T08:06:27;73785.03;;;-140.58;42.34
17309;BME280;8772;42.804;23.426;2023-04-07T08:08:55;73793.25;;;-140.58;43.24
17309;BME280;8772;42.804;23.426;2023-04-07T08:11:23;73809.66;;;-140.58;41.07
17309;BME280;8772;42.804;23.426;2023-04-07T08:13:50;73858.91;;;-140.58;42.27
17309;BME280;8772;42.804;23.426;2023-04-07T08:16:18;73860.94;;;-140.58;42.70
17309;BME280;8772;42.804;23.426;2023-04-07T08:18:47;73854.78;;;-140.58;43.02
17309;BME280;8772;42.804;23.426;2023-04-07T08:21:14;73856.84;;;-140.58;42.28
17309;BME280;8772;42.804;23.426;2023-04-07T08:23:41;73838.38;;;-140.58;42.90
17309;BME280;8772;42.804;23.426;2023-04-07T08:26:08;73844.53;;;-140.58;42.94
17309;BME280;8772;42.804;23.426;2023-04-07T08:28:35;73850.69;;;-140.58;42.37
17309;BME280;8772;42.804;23.426;2023-04-07T08:31:02;73826.06;;;-140.58;41.78
17309;BME280;8772;42.804;23.426;2023-04-07T08:33:29;73821.97;;;-140.58;41.80
17309;BME280;8772;42.804;23.426;2023-04-07T08:35:57;73821.97;;;-140.58;42.17
17309;BME280;8772;42.804;23.426;2023-04-07T08:38:24;73813.75;;;-140.58;42.15
17309;BME280;8772;42.804;23.426;2023-04-07T08:40:55;73809.66;;;-140.58;43.25
17309;BME280;8772;42.804;23.426;2023-04-07T08:43:25;73809.66;;;-140.58;40.99
17309;BME280;8772;42.804;23.426;2023-04-07T08:45:55;73780.94;;;-140.58;43.55
17309;BME280;8772;42.804;23.426;2023-04-07T08:48:23;73762.47;;;-140.58;42.76
17309;BME280;8772;42.804;23.426;2023-04-07T08:50:51;73733.75;;;-140.58;41.37
17309;BME280;8772;42.804;23.426;2023-04-07T08:53:23;73698.88;;;-140.58;40.77
17309;BME280;8772;42.804;23.426;2023-04-07T08:55:54;73694.78;;;-140.58;39.37
17309;BME280;8772;42.804;23.426;2023-04-07T08:58:23;73676.31;;;-140.58;41.24
17309;BME280;8772;42.804;23.426;2023-04-07T09:00:50;73672.22;;;-140.58;40.29
17309;BME280;8772;42.804;23.426;2023-04-07T09:03:18;73661.97;;;-140.58;39.22
17309;BME280;8772;42.804;23.426;2023-04-07T09:05:45;73657.84;;;-140.58;38.40
17309;BME280;8772;42.804;23.426;2023-04-07T09:08:12;73670.16;;;-140.58;38.03
17309;BME280;8772;42.804;23.426;2023-04-07T09:10:41;73664.00;;;-140.58;40.22
17309;BME280;8772;42.804;23.426;2023-04-07T09:13:07;73657.84;;;-140.58;38.50
17309;BME280;8772;42.804;23.426;2023-04-07T09:15:35;73678.38;;;-140.58;38.95
17309;BME280;8772;42.804;23.426;2023-04-07T09:18:02;73684.53;;;-140.58;39.82
17309;BME280;8772;42.804;23.426;2023-04-07T09:20:54;73674.25;;;-140.58;39.60
17309;BME280;8772;42.804;23.426;2023-04-07T09:23:27;73684.53;;;-140.58;41.02
17309;BME280;8772;42.804;23.426;2023-04-07T09:25:56;73678.38;;;-140.58;39.29
17309;BME280;8772;42.804;23.426;2023-04-07T09:28:37;73670.16;;;-140.58;39.47
17309;BME280;8772;42.804;23.426;2023-04-07T09:31:06;73682.47;;;-140.58;40.40
17309;BME280;8772;42.804;23.426;2023-04-07T09:33:33;73678.38;;;-140.58;39.61
17309;BME280;8772;42.804;23.426;2023-04-07T09:36:00;73670.16;;;-140.58;38.99
17309;BME280;8772;42.804;23.426;2023-04-07T09:38:32;73729.66;;;-140.58;38.75
17309;BME280;8772;42.804;23.426;2023-04-07T09:41:06;73696.81;;;-140.58;39.87
17309;BME280;8772;42.804;23.426;2023-04-07T09:43:35;73711.19;;;-140.58;40.65
17309;BME280;8772;42.804;23.426;2023-04-07T09:46:12;73723.50;;;-140.58;40.67
17309;BME280;8772;42.804;23.426;2023-04-07T09:48:40;73715.28;;;-140.58;39.63
17309;BME280;8772;42.804;23.426;2023-04-07T09:51:09;73698.88;;;-140.58;41.23
17309;BME280;8772;42.804;23.426;2023-04-07T09:53:44;73717.34;;;-140.58;41.82
17309;BME280;8772;42.804;23.426;2023-04-07T09:56:13;73680.41;;;-140.58;42.20
17309;BME280;8772;42.804;23.426;2023-04-07T09:58:43;73647.59;;;-140.58;41.99
17309;BME280;8772;42.804;23.426;2023-04-07T10:01:10;73620.94;;;-140.58;40.22
17309;BME280;8772;42.804;23.426;2023-04-07T10:03:38;73608.63;;;-140.58;40.08
17309;BME280;8772;42.804;23.426;2023-04-07T10:06:05;73608.63;;;-140.58;41.06
17309;BME280;8772;42.804;23.426;2023-04-07T10:08:34;73577.84;;;-140.58;39.08
17309;BME280;8772;42.804;23.426;2023-04-07T10:11:02;73596.31;;;-140.58;38.46
17309;BME280;8772;42.804;23.426;2023-04-07T10:13:33;73633.25;;;-140.58;38.69
17309;BME280;8772;42.804;23.426;2023-04-07T10:16:02;73649.66;;;-140.58;40.79
17309;BME280;8772;42.804;23.426;2023-04-07T10:18:31;73643.50;;;-140.58;40.29
17309;BME280;8772;42.804;23.426;2023-04-07T10:21:00;73653.75;;;-140.58;39.35
17309;BME280;8772;42.804;23.426;2023-04-07T10:23:46;73643.50;;;-140.58;41.14
17309;BME280;8772;42.804;23.426;2023-04-07T10:26:16;73631.19;;;-140.58;40.92
17309;BME280;8772;42.804;23.426;2023-04-07T10:28:48;73625.03;;;-140.58;39.23
17309;BME280;8772;42.804;23.426;2023-04-07T10:31:17;73661.97;;;-140.58;40.75
17309;BME280;8772;42.804;23.426;2023-04-07T10:33:45;73631.19;;;-140.58;40.24
17309;BME280;8772;42.804;23.426;2023-04-07T10:36:13;73618.88;;;-140.58;40.67
17309;BME280;8772;42.804;23.426;2023-04-07T10:38:40;73616.81;;;-140.58;39.25
17309;BME280;8772;42.804;23.426;2023-04-07T10:41:32;73596.31;;;-140.58;40.04
17309;BME280;8772;42.804;23.426;2023-04-07T10:44:02;73600.41;;;-140.58;41.14
17309;BME280;8772;42.804;23.426;2023-04-07T10:47:01;73596.31;;;-140.58;38.67
17309;BME280;8772;42.804;23.426;2023-04-07T10:49:28;73588.09;;;-140.58;38.36
17309;BME280;8772;42.804;23.426;2023-04-07T10:52:22;73577.84;;;-140.58;38.53
17309;BME280;8772;42.804;23.426;2023-04-07T10:58:20;73594.25;;;-140.58;38.89
17309;BME280;8772;42.804;23.426;2023-04-07T11:01:16;73588.09;;;-140.58;39.52
17309;BME280;8772;42.804;23.426;2023-04-07T11:03:56;73616.81;;;-140.58;39.25
17309;BME280;8772;42.804;23.426;2023-04-07T11:06:23;73661.97;;;-140.58;39.89
17309;BME280;8772;42.804;23.426;2023-04-07T11:08:51;73627.09;;;-140.58;39.43
17309;BME280;8772;42.804;23.426;2023-04-07T11:11:36;73625.03;;;-140.58;40.59
17309;BME280;8772;42.804;23.426;2023-04-07T11:14:04;73622.97;;;-140.58;39.13
17309;BME280;8772;42.804;23.426;2023-04-07T11:16:37;73616.81;;;-140.58;39.65
17309;BME280;8772;42.804;23.426;2023-04-07T11:19:04;73629.13;;;-140.58;39.71
17309;BME280;8772;42.804;23.426;2023-04-07T11:21:31;73629.13;;;-140.58;38.75
17309;BME280;8772;42.804;23.426;2023-04-07T11:23:58;73618.88;;;-140.58;39.75
17309;BME280;8772;42.804;23.426;2023-04-07T11:26:25;73588.09;;;-140.58;40.62
17309;BME280;8772;42.804;23.426;2023-04-07T11:28:54;73565.53;;;-140.58;39.79
17309;BME280;8772;42.804;23.426;2023-04-07T11:31:23;73559.38;;;-140.58;38.62
17309;BME280;8772;42.804;23.426;2023-04-07T11:33:56;73545.03;;;-140.58;37.80
17309;BME280;8772;42.804;23.426;2023-04-07T11:36:27;73559.38;;;-140.58;39.57
17309;BME280;8772;42.804;23.426;2023-04-07T11:38:55;73551.19;;;-140.58;37.24
17309;BME280;8772;42.804;23.426;2023-04-07T11:41:23;73555.28;;;-140.58;37.86
17309;BME280;8772;42.804;23.426;2023-04-07T11:44:03;73557.34;;;-140.58;38.71
17309;BME280;8772;42.804;23.426;2023-04-07T11:46:30;73555.28;;;-140.58;39.29
17309;BME280;8772;42.804;23.426;2023-04-07T11:49:09;73534.78;;;-140.58;38.90
17309;BME280;8772;42.804;23.426;2023-04-07T11:51:36;73506.06;;;-140.58;37.17
17309;BME280;8772;42.804;23.426;2023-04-07T11:54:03;73518.38;;;-140.58;37.20
17309;BME280;8772;42.804;23.426;2023-04-07T11:56:40;73540.94;;;-140.58;37.52
17309;BME280;8772;42.804;23.426;2023-04-07T11:59:08;73538.88;;;-140.58;37.96
17309;BME280;8772;42.804;23.426;2023-04-07T12:01:38;73581.97;;;-140.58;37.35
17309;BME280;8772;42.804;23.426;2023-04-07T12:04:10;73549.13;;;-140.58;38.03
17309;BME280;8772;42.804;23.426;2023-04-07T12:06:37;73581.97;;;-140.58;37.28
17309;BME280;8772;42.804;23.426;2023-04-07T12:09:07;73598.38;;;-140.58;39.02
17309;BME280;8772;42.804;23.426;2023-04-07T12:11:34;73594.25;;;-140.58;39.23
17309;BME280;8772;42.804;23.426;2023-04-07T12:14:02;73579.91;;;-140.58;38.59
17309;BME280;8772;42.804;23.426;2023-04-07T12:16:31;73600.41;;;-140.58;38.09
17309;BME280;8772;42.804;23.426;2023-04-07T12:18:58;73600.41;;;-140.58;37.76
17309;BME280;8772;42.804;23.426;2023-04-07T12:21:26;73596.31;;;-140.58;36.86
17309;BME280;8772;42.804;23.426;2023-04-07T12:23:53;73606.56;;;-140.58;38.39
17309;BME280;8772;42.804;23.426;2023-04-07T12:26:20;73588.09;;;-140.58;37.16
17309;BME280;8772;42.804;23.426;2023-04-07T12:28:47;73588.09;;;-140.58;38.58
17309;BME280;8772;42.804;23.426;2023-04-07T12:31:14;73592.22;;;-140.58;36.93
17309;BME280;8772;42.804;23.426;2023-04-07T12:33:41;73577.84;;;-140.58;38.44
17309;BME280;8772;42.804;23.426;2023-04-07T12:36:08;73567.59;;;-140.58;37.82
17309;BME280;8772;42.804;23.426;2023-04-07T12:38:36;73559.38;;;-140.58;37.19
17309;BME280;8772;42.804;23.426;2023-04-07T12:41:03;73551.19;;;-140.58;37.76
17309;BME280;8772;42.804;23.426;2023-04-07T12:43:30;73588.09;;;-140.58;36.64
17309;BME280;8772;42.804;23.426;2023-04-07T12:45:57;73588.09;;;-140.58;38.58
17309;BME280;8772;42.804;23.426;2023-04-07T12:48:24;73575.81;;;-140.58;38.85
17309;BME280;8772;42.804;23.426;2023-04-07T12:50:51;73571.69;;;-140.58;38.53
17309;BME280;8772;42.804;23.426;2023-04-07T12:53:18;73622.97;;;-140.58;38.70